Time;durP1;ratioP1;P1;durP2;ratioP2;P2;SDS_P1;SDS_P2;PMS_P1;PMS_P2;Temp;Humidity;BMP_temperature;BMP_pressure;BME280_temperature;BME280_humidity;BME280_pressure;Samples;Min_cycle;Max_cycle;Signal;HPM_P1;HPM_P2
2023/08/19 00:01:53;;;;;;;15.30;14.60;;;24.20;99.90;;;;;;4910201;29;20454;-86
2023/08/19 00:04:28;;;;;;;15.77;15.17;;;24.10;99.90;;;;;;4910129;29;20473;-87
2023/08/19 00:07:02;;;;;;;15.50;14.90;;;24.10;99.90;;;;;;4909416;29;20469;-85
2023/08/19 00:09:34;;;;;;;15.70;15.00;;;24.10;99.90;;;;;;4921007;29;20531;-85
2023/08/19 00:12:04;;;;;;;16.10;15.20;;;24.00;99.90;;;;;;4903848;29;20458;-87
2023/08/19 00:14:36;;;;;;;16.40;15.50;;;24.00;99.90;;;;;;4903364;29;20470;-88
2023/08/19 00:17:11;;;;;;;15.90;15.20;;;24.00;1.00;;;;;;4907366;29;20478;-85
2023/08/19 00:19:46;;;;;;;15.70;15.00;;;24.00;1.00;;;;;;4915375;29;20525;-86
2023/08/19 00:22:17;;;;;;;16.30;15.50;;;23.90;1.00;;;;;;4921563;29;20445;-85
2023/08/19 00:24:51;;;;;;;15.93;15.13;;;23.90;1.00;;;;;;4906675;29;20840;-86
2023/08/19 00:27:22;;;;;;;16.50;15.50;;;23.80;1.00;;;;;;4908170;29;20482;-87
2023/08/19 00:29:55;;;;;;;16.67;15.97;;;23.80;1.00;;;;;;4907967;29;20482;-86
2023/08/19 00:32:27;;;;;;;15.90;15.10;;;23.90;1.00;;;;;;4907041;29;20462;-86
2023/08/19 00:35:01;;;;;;;16.20;15.50;;;23.80;1.00;;;;;;4908978;29;20474;-85
2023/08/19 00:37:32;;;;;;;15.93;15.33;;;23.80;1.00;;;;;;4910490;29;20498;-86
2023/08/19 00:40:09;;;;;;;15.67;15.03;;;23.80;1.00;;;;;;4906118;29;20983;-85
2023/08/19 00:42:38;;;;;;;15.23;14.63;;;23.70;1.00;;;;;;4904096;29;20458;-87
2023/08/19 00:45:10;;;;;;;16.53;15.40;;;23.70;1.00;;;;;;4905128;29;20462;-87
2023/08/19 00:47:44;;;;;;;15.10;14.50;;;23.70;1.00;;;;;;4904623;29;20470;-84
2023/08/19 00:50:16;;;;;;;15.87;14.90;;;23.70;1.00;;;;;;4905385;29;20490;-89
2023/08/19 00:52:48;;;;;;;15.27;14.50;;;23.60;1.00;;;;;;4901962;29;20473;-85
2023/08/19 00:55:24;;;;;;;15.20;14.60;;;23.60;1.00;;;;;;4906599;29;20471;-85
2023/08/19 00:58:01;;;;;;;14.50;13.90;;;23.60;1.00;;;;;;4904912;29;20477;-85
2023/08/19 01:00:30;;;;;;;15.37;14.77;;;23.60;1.00;;;;;;4904569;29;20528;-88
2023/08/19 01:03:04;;;;;;;15.20;14.40;;;23.60;1.00;;;;;;4906933;29;20497;-85
2023/08/19 01:05:45;;;;;;;15.97;14.90;;;23.50;1.00;;;;;;4904055;29;20485;-85
2023/08/19 01:08:22;;;;;;;15.20;14.60;;;23.50;1.00;;;;;;4906595;29;21033;-88
2023/08/19 01:11:09;;;;;;;14.93;14.33;;;23.40;1.00;;;;;;4903952;29;20509;-85
2023/08/19 01:13:49;;;;;;;14.83;14.20;;;23.50;1.00;;;;;;4901415;29;21225;-85
2023/08/19 01:16:23;;;;;;;16.10;15.20;;;23.40;1.00;;;;;;4907358;29;20775;-88
2023/08/19 01:18:53;;;;;;;14.77;14.17;;;23.50;1.00;;;;;;4903706;29;20441;-85
2023/08/19 01:21:29;;;;;;;14.60;14.10;;;23.40;1.00;;;;;;4903240;29;20521;-86
2023/08/19 01:24:06;;;;;;;15.17;14.47;;;23.40;1.00;;;;;;4904821;29;20474;-86
2023/08/19 01:26:42;;;;;;;14.93;14.23;;;23.40;1.00;;;;;;4906164;29;20774;-85
2023/08/19 01:29:10;;;;;;;14.93;14.27;;;23.30;1.00;;;;;;4909200;29;20499;-85
2023/08/19 01:31:43;;;;;;;13.93;13.53;;;23.40;1.00;;;;;;4906741;29;20466;-85
2023/08/19 01:34:14;;;;;;;15.30;14.60;;;23.30;1.00;;;;;;4906530;29;20466;-84
2023/08/19 01:36:53;;;;;;;15.10;14.40;;;23.30;1.00;;;;;;4904536;29;20483;-85
2023/08/19 01:39:30;;;;;;;15.17;14.30;;;23.30;1.00;;;;;;4907929;29;20842;-85
2023/08/19 01:42:01;;;;;;;16.37;15.20;;;23.20;1.00;;;;;;4904329;29;20466;-85
2023/08/19 01:44:34;;;;;;;15.00;14.40;;;23.20;1.00;;;;;;4903848;29;20947;-86
2023/08/19 01:47:13;;;;;;;15.57;14.73;;;23.30;1.00;;;;;;4904892;29;20494;-87
2023/08/19 01:49:49;;;;;;;14.90;14.30;;;23.20;1.00;;;;;;4907128;29;20480;-88
2023/08/19 01:52:23;;;;;;;14.90;14.30;;;23.30;1.00;;;;;;4904489;29;20488;-87
2023/08/19 01:54:58;;;;;;;14.40;13.90;;;23.20;1.00;;;;;;4908502;29;20474;-88
2023/08/19 01:57:28;;;;;;;15.17;14.53;;;23.20;1.00;;;;;;4921577;29;20476;-87
2023/08/19 02:00:03;;;;;;;14.47;13.80;;;23.10;1.00;;;;;;4905718;29;20462;-86
2023/08/19 02:02:37;;;;;;;14.83;14.23;;;23.10;1.00;;;;;;4907800;29;20959;-85
2023/08/19 02:05:12;;;;;;;14.63;14.13;;;23.10;1.00;;;;;;4905890;29;21210;-85
2023/08/19 02:07:43;;;;;;;15.00;14.30;;;23.00;1.00;;;;;;4902988;29;20474;-86
2023/08/19 02:10:12;;;;;;;14.47;13.80;;;23.10;1.00;;;;;;4907087;29;20489;-85
2023/08/19 02:12:47;;;;;;;13.87;13.47;;;23.10;1.00;;;;;;4907093;29;20459;-85
2023/08/19 02:15:24;;;;;;;14.10;13.60;;;23.10;1.00;;;;;;4903570;29;20510;-84
2023/08/19 02:17:55;;;;;;;13.90;13.40;;;23.10;1.00;;;;;;4905408;29;20554;-85
2023/08/19 02:20:30;;;;;;;14.40;13.73;;;23.00;99.90;;;;;;4908572;29;20973;-85
2023/08/19 02:23:01;;;;;;;13.57;13.17;;;23.00;99.90;;;;;;4920362;29;20969;-86
2023/08/19 02:25:36;;;;;;;14.47;13.90;;;23.00;99.90;;;;;;4904777;29;20453;-85
2023/08/19 02:28:14;;;;;;;14.57;13.97;;;23.00;1.00;;;;;;4904708;29;21271;-87
2023/08/19 02:30:43;;;;;;;14.60;14.00;;;23.00;99.90;;;;;;4920525;29;20624;-85
2023/08/19 02:33:16;;;;;;;14.30;13.90;;;22.90;1.00;;;;;;4911513;29;20469;-86
2023/08/19 02:35:51;;;;;;;14.07;13.47;;;22.90;1.00;;;;;;4922522;29;21004;-88
2023/08/19 02:38:26;;;;;;;14.60;14.10;;;22.90;1.00;;;;;;4904481;29;20481;-87
2023/08/19 02:40:56;;;;;;;14.73;14.17;;;22.90;1.00;;;;;;4904770;29;20447;-85
2023/08/19 02:43:27;;;;;;;15.10;14.40;;;22.90;1.00;;;;;;4909318;29;20453;-87
2023/08/19 02:45:59;;;;;;;14.90;14.30;;;22.90;1.00;;;;;;4922224;28;20469;-86
2023/08/19 02:48:30;;;;;;;14.53;14.03;;;22.80;1.00;;;;;;4906202;29;20532;-85
2023/08/19 02:51:08;;;;;;;15.77;15.10;;;22.70;1.00;;;;;;4921156;29;21079;-86
2023/08/19 02:53:37;;;;;;;16.23;15.33;;;22.70;1.00;;;;;;4905408;29;20873;-85
2023/08/19 02:56:08;;;;;;;15.77;14.93;;;22.80;1.00;;;;;;4909312;29;20470;-85
2023/08/19 02:58:44;;;;;;;15.17;14.57;;;22.80;1.00;;;;;;4907674;29;20477;-88
2023/08/19 03:01:18;;;;;;;15.33;14.43;;;22.70;1.00;;;;;;4906320;29;20457;-86
2023/08/19 03:03:54;;;;;;;14.47;13.97;;;22.70;1.00;;;;;;4909064;29;20461;-86
2023/08/19 03:06:29;;;;;;;14.67;14.17;;;22.60;1.00;;;;;;4914952;29;20898;-85
2023/08/19 03:08:58;;;;;;;15.27;14.53;;;22.70;1.00;;;;;;4908467;29;20453;-86
2023/08/19 03:11:28;;;;;;;14.70;14.10;;;22.60;1.00;;;;;;4910391;29;20510;-89
2023/08/19 03:14:00;;;;;;;14.70;14.20;;;22.60;1.00;;;;;;4906965;29;20952;-85
2023/08/19 03:16:34;;;;;;;15.23;14.37;;;22.70;1.00;;;;;;4906463;29;20470;-86
2023/08/19 03:19:04;;;;;;;14.37;13.87;;;22.60;1.00;;;;;;4905061;29;20473;-85
2023/08/19 03:21:40;;;;;;;15.07;14.37;;;22.60;1.00;;;;;;4920967;29;20961;-89
2023/08/19 03:24:16;;;;;;;14.20;13.67;;;22.60;1.00;;;;;;4908376;29;20470;-85
2023/08/19 03:26:49;;;;;;;14.97;14.37;;;22.40;1.00;;;;;;4905806;29;20478;-84
2023/08/19 03:29:21;;;;;;;15.13;14.47;;;22.40;1.00;;;;;;4919383;29;20564;-85
2023/08/19 03:31:49;;;;;;;15.30;14.60;;;22.40;1.00;;;;;;4906750;29;21032;-85
2023/08/19 03:34:21;;;;;;;15.00;14.40;;;22.40;1.00;;;;;;4906446;29;20466;-87
2023/08/19 03:36:56;;;;;;;15.27;14.67;;;22.40;1.00;;;;;;4908198;29;20477;-85
2023/08/19 03:39:26;;;;;;;15.13;14.53;;;22.40;1.00;;;;;;4904622;29;20815;-85
2023/08/19 03:41:58;;;;;;;16.17;15.47;;;22.40;4.10;;;;;;4907075;29;20968;-85
2023/08/19 03:44:33;;;;;;;15.13;14.63;;;22.40;6.70;;;;;;4906374;29;20460;-86
2023/08/19 03:47:02;;;;;;;15.27;14.47;;;22.40;38.30;;;;;;4906836;29;20481;-85
2023/08/19 03:49:31;;;;;;;14.40;14.00;;;22.40;1.00;;;;;;4906888;29;20454;-85
2023/08/19 03:52:07;;;;;;;15.00;14.40;;;22.40;1.00;;;;;;4907132;29;20453;-86
2023/08/19 03:54:38;;;;;;;15.30;14.63;;;22.40;1.00;;;;;;4906637;29;20469;-85
2023/08/19 03:57:13;;;;;;;14.27;13.83;;;22.40;1.00;;;;;;4904210;29;20665;-85
2023/08/19 03:59:45;;;;;;;14.97;14.47;;;22.40;1.00;;;;;;4903783;29;20455;-87
2023/08/19 04:02:16;;;;;;;15.17;14.47;;;22.30;1.00;;;;;;4904831;29;20461;-87
2023/08/19 04:04:57;;;;;;;15.10;14.50;;;22.20;1.00;;;;;;4907778;29;20995;-86
2023/08/19 04:07:29;;;;;;;15.30;14.73;;;22.30;1.00;;;;;;4905838;29;20477;-85
2023/08/19 04:10:01;;;;;;;15.33;14.63;;;22.20;1.00;;;;;;4909711;29;21105;-86
2023/08/19 04:12:34;;;;;;;15.73;15.13;;;22.20;1.00;;;;;;4908401;29;20454;-85
2023/08/19 04:15:10;;;;;;;15.10;14.50;;;22.20;4.90;;;;;;4905155;29;20552;-86
2023/08/19 04:17:41;;;;;;;15.33;14.53;;;22.20;17.70;;;;;;4908230;29;20485;-85
2023/08/19 04:20:13;;;;;;;15.67;14.97;;;22.20;64.10;;;;;;4911977;29;20454;-85
2023/08/19 04:22:46;;;;;;;15.70;15.07;;;22.20;73.20;;;;;;4908729;29;20474;-87
2023/08/19 04:25:24;;;;;;;15.07;14.57;;;22.10;99.90;;;;;;4906759;29;20461;-85
2023/08/19 04:27:52;;;;;;;15.47;14.90;;;22.10;99.90;;;;;;4911811;29;20544;-87
2023/08/19 04:30:27;;;;;;;15.40;14.70;;;22.10;99.90;;;;;;4922818;29;20505;-85
2023/08/19 04:32:58;;;;;;;16.10;15.30;;;22.10;99.90;;;;;;4904073;29;21002;-85
2023/08/19 04:35:30;;;;;;;15.67;14.60;;;22.10;99.90;;;;;;4908381;29;20461;-86
2023/08/19 04:38:04;;;;;;;15.27;14.73;;;22.00;99.90;;;;;;4906666;29;20482;-85
2023/08/19 04:40:36;;;;;;;15.50;15.00;;;22.10;99.90;;;;;;4909024;29;20489;-88
2023/08/19 04:43:05;;;;;;;15.50;14.80;;;22.10;99.90;;;;;;4908018;29;20468;-86
2023/08/19 04:45:40;;;;;;;15.83;15.03;;;22.10;99.90;;;;;;4908953;29;20462;-86
2023/08/19 04:48:14;;;;;;;15.63;14.83;;;22.10;99.90;;;;;;4905832;29;20477;-86
2023/08/19 04:50:46;;;;;;;16.50;15.50;;;22.10;99.90;;;;;;4925619;29;20482;-85
2023/08/19 04:53:17;;;;;;;16.10;15.30;;;22.00;99.90;;;;;;4904699;29;20459;-88
2023/08/19 04:55:51;;;;;;;16.17;15.47;;;22.00;99.90;;;;;;4909155;29;20465;-86
2023/08/19 04:58:21;;;;;;;15.50;14.90;;;22.00;99.90;;;;;;4907070;29;20489;-87
2023/08/19 05:01:04;;;;;;;15.27;14.70;;;22.00;99.90;;;;;;4909562;29;20468;-87
2023/08/19 05:03:37;;;;;;;15.83;15.00;;;22.10;99.90;;;;;;4914630;29;20449;-85
2023/08/19 05:06:08;;;;;;;15.93;15.10;;;22.10;99.90;;;;;;4904877;29;20462;-85
2023/08/19 05:08:44;;;;;;;349.00;138.00;;;22.10;99.90;;;;;;4907830;29;20481;-84
2023/08/19 05:11:13;;;;;;;83.70;45.00;;;22.00;99.90;;;;;;4911541;29;20481;-85
2023/08/19 05:13:42;;;;;;;66.90;39.90;;;22.00;99.90;;;;;;4909324;29;20451;-84
2023/08/19 05:16:15;;;;;;;24.07;22.00;;;22.10;99.90;;;;;;4905579;29;20462;-84
2023/08/19 05:18:43;;;;;;;18.50;17.10;;;22.10;99.90;;;;;;4911030;29;20478;-84
2023/08/19 05:21:14;;;;;;;16.20;15.40;;;22.10;99.90;;;;;;4902923;29;20483;-86
2023/08/19 05:23:48;;;;;;;17.63;16.63;;;22.10;99.90;;;;;;4910019;29;20458;-85
2023/08/19 05:26:19;;;;;;;17.57;16.57;;;22.10;99.90;;;;;;4907950;29;20473;-86
2023/08/19 05:28:50;;;;;;;17.37;16.27;;;22.10;99.90;;;;;;4921371;29;20461;-87
2023/08/19 05:31:24;;;;;;;16.80;16.00;;;22.20;99.90;;;;;;4904735;29;20486;-85
2023/08/19 05:33:55;;;;;;;16.70;15.90;;;22.20;99.90;;;;;;4905989;29;20454;-84
2023/08/19 05:36:28;;;;;;;16.90;15.90;;;22.30;99.90;;;;;;4908306;29;20839;-85
2023/08/19 05:39:02;;;;;;;16.70;16.10;;;22.20;99.90;;;;;;4908313;29;20453;-85
2023/08/19 05:41:35;;;;;;;16.73;15.60;;;22.20;99.90;;;;;;4906274;29;21043;-85
2023/08/19 05:44:08;;;;;;;16.23;15.63;;;22.30;99.90;;;;;;4907702;29;20947;-85
2023/08/19 05:46:43;;;;;;;16.00;15.40;;;22.30;99.90;;;;;;4905680;29;20484;-85
2023/08/19 05:49:13;;;;;;;16.93;16.10;;;22.40;99.90;;;;;;4906219;29;20473;-87
2023/08/19 05:51:48;;;;;;;16.10;15.30;;;22.50;99.90;;;;;;4906668;29;20484;-86
2023/08/19 05:54:17;;;;;;;16.77;16.07;;;22.50;99.90;;;;;;4905510;29;20462;-86
2023/08/19 05:56:49;;;;;;;17.27;16.57;;;22.60;99.90;;;;;;4905020;29;20501;-86
2023/08/19 05:59:19;;;;;;;17.20;16.40;;;22.60;99.90;;;;;;4906905;29;20462;-85
2023/08/19 06:01:52;;;;;;;17.37;16.37;;;22.70;99.90;;;;;;4918733;29;20497;-87
2023/08/19 06:04:24;;;;;;;16.40;15.70;;;22.90;99.90;;;;;;4904175;29;21050;-87
2023/08/19 06:06:57;;;;;;;17.43;16.53;;;22.90;64.50;;;;;;4903309;29;20489;-85
2023/08/19 06:09:30;;;;;;;17.00;16.23;;;23.00;4.00;;;;;;4904575;29;20481;-85
2023/08/19 06:12:05;;;;;;;17.23;16.33;;;23.10;1.00;;;;;;4922268;29;21042;-88
2023/08/19 06:14:34;;;;;;;16.90;16.07;;;23.40;1.00;;;;;;4903808;29;20891;-84
2023/08/19 06:17:06;;;;;;;17.93;17.03;;;23.60;1.00;;;;;;4904867;29;20489;-86
2023/08/19 06:19:38;;;;;;;17.70;16.90;;;23.80;1.00;;;;;;4903663;29;20447;-85
2023/08/19 06:22:09;;;;;;;17.50;16.37;;;24.00;1.00;;;;;;4902053;29;20459;-85
2023/08/19 06:24:41;;;;;;;17.90;16.67;;;24.20;1.00;;;;;;4903263;29;20835;-84
2023/08/19 06:27:15;;;;;;;16.97;16.17;;;24.40;1.00;;;;;;4904873;29;20484;-86
2023/08/19 06:29:46;;;;;;;16.70;16.00;;;24.60;1.00;;;;;;4907373;29;20459;-87
2023/08/19 06:32:22;;;;;;;16.83;16.03;;;24.80;1.00;;;;;;4902359;29;20486;-84
2023/08/19 06:34:52;;;;;;;17.17;16.43;;;25.00;1.00;;;;;;4901665;29;20839;-87
2023/08/19 06:37:30;;;;;;;17.07;16.47;;;25.20;1.00;;;;;;4904835;29;20541;-87
2023/08/19 06:40:09;;;;;;;17.30;16.40;;;25.40;1.00;;;;;;4907227;29;20473;-91
2023/08/19 06:42:40;;;;;;;17.00;16.33;;;25.50;1.00;;;;;;4903334;29;20446;-85
2023/08/19 06:45:11;;;;;;;17.67;16.77;;;25.70;1.00;;;;;;4905350;29;20534;-89
2023/08/19 06:47:45;;;;;;;16.63;15.83;;;25.80;99.90;;;;;;4906993;29;20644;-85
2023/08/19 06:50:15;;;;;;;17.23;16.43;;;25.90;99.90;;;;;;4905434;29;20549;-86
2023/08/19 06:52:46;;;;;;;17.67;16.47;;;26.20;99.90;;;;;;4904244;29;20868;-86
2023/08/19 06:55:18;;;;;;;17.30;16.20;;;26.30;99.90;;;;;;4904232;29;20461;-86
2023/08/19 06:57:55;;;;;;;16.60;15.83;;;26.50;99.90;;;;;;4910217;29;20508;-86
2023/08/19 07:00:24;;;;;;;16.97;16.17;;;26.60;99.90;;;;;;4906735;29;20469;-86
2023/08/19 07:02:56;;;;;;;17.40;16.43;;;26.70;99.90;;;;;;4907689;29;20455;-89
2023/08/19 07:05:31;;;;;;;16.30;15.40;;;27.00;99.90;;;;;;4902410;29;20806;-85
2023/08/19 07:08:10;;;;;;;16.63;15.60;;;27.20;99.90;;;;;;4906232;29;20494;-86
2023/08/19 07:10:43;;;;;;;17.10;16.30;;;27.40;99.90;;;;;;4914110;29;20477;-86
2023/08/19 07:13:14;;;;;;;16.97;16.00;;;27.50;99.90;;;;;;4922888;29;21114;-88
2023/08/19 07:15:52;;;;;;;16.20;15.37;;;27.60;99.90;;;;;;4906702;29;20488;-85
2023/08/19 07:18:27;;;;;;;15.97;15.20;;;27.60;99.90;;;;;;4905760;29;21284;-85
2023/08/19 07:21:00;;;;;;;16.23;15.53;;;27.60;99.90;;;;;;4905264;29;20467;-88
2023/08/19 07:23:39;;;;;;;16.23;15.17;;;27.40;99.90;;;;;;4906444;29;20489;-86
2023/08/19 07:26:12;;;;;;;16.43;15.60;;;27.50;99.90;;;;;;4902295;29;20454;-87
2023/08/19 07:28:45;;;;;;;16.40;15.70;;;27.60;99.90;;;;;;4904335;29;20512;-85
2023/08/19 07:31:17;;;;;;;16.00;15.30;;;27.50;99.90;;;;;;4903244;29;20477;-89
2023/08/19 07:33:50;;;;;;;16.30;15.50;;;27.50;99.90;;;;;;4907589;29;20882;-85
2023/08/19 07:36:25;;;;;;;16.60;15.60;;;27.40;99.90;;;;;;4905637;29;20462;-87
2023/08/19 07:38:56;;;;;;;16.80;16.00;;;27.50;99.90;;;;;;4923718;29;20466;-86
2023/08/19 07:41:34;;;;;;;16.67;15.70;;;27.50;99.90;;;;;;4911241;29;20445;-85
2023/08/19 07:44:05;;;;;;;17.20;16.07;;;27.50;99.90;;;;;;4908410;29;20465;-87
2023/08/19 07:46:33;;;;;;;16.90;16.00;;;27.60;99.90;;;;;;4907449;29;20525;-86
2023/08/19 07:49:09;;;;;;;16.43;15.40;;;27.70;99.90;;;;;;4907536;29;20937;-85
2023/08/19 07:51:37;;;;;;;16.73;15.93;;;27.60;99.90;;;;;;4908977;29;20496;-85
2023/08/19 07:54:09;;;;;;;17.60;16.80;;;27.70;99.90;;;;;;4911170;29;20458;-87
2023/08/19 07:56:41;;;;;;;16.87;15.90;;;27.50;99.90;;;;;;4908893;29;20474;-86
2023/08/19 07:59:10;;;;;;;16.17;15.30;;;27.60;99.90;;;;;;4908266;29;20457;-85
2023/08/19 08:01:43;;;;;;;15.90;15.20;;;27.60;99.90;;;;;;4904560;29;21035;-85
2023/08/19 08:04:19;;;;;;;16.20;15.37;;;27.60;99.90;;;;;;4906325;29;20518;-85
2023/08/19 08:06:50;;;;;;;16.87;16.17;;;27.60;99.90;;;;;;4906935;29;20579;-86
2023/08/19 08:09:24;;;;;;;16.30;15.63;;;27.60;99.90;;;;;;4906875;29;20472;-85
2023/08/19 08:11:54;;;;;;;16.47;15.63;;;27.70;99.90;;;;;;4908250;29;20474;-86
2023/08/19 08:14:27;;;;;;;16.80;15.90;;;27.70;99.90;;;;;;4907130;29;20799;-89
2023/08/19 08:17:00;;;;;;;16.90;16.20;;;27.80;99.90;;;;;;4909397;29;20478;-86
2023/08/19 08:19:32;;;;;;;16.50;15.80;;;27.80;99.90;;;;;;4908386;29;20545;-86
2023/08/19 08:22:03;;;;;;;16.77;15.87;;;27.70;99.90;;;;;;4908735;29;20849;-86
2023/08/19 08:24:37;;;;;;;16.10;15.40;;;27.70;99.90;;;;;;4910822;29;20800;-86
2023/08/19 08:27:09;;;;;;;16.33;15.47;;;27.80;99.90;;;;;;4923389;29;20489;-87
2023/08/19 08:29:40;;;;;;;16.90;15.83;;;27.80;99.90;;;;;;4909453;29;20450;-86
2023/08/19 08:32:09;;;;;;;17.13;15.70;;;27.90;99.90;;;;;;4907519;29;21346;-85
2023/08/19 08:34:42;;;;;;;16.23;15.40;;;27.90;99.90;;;;;;4907831;29;20458;-88
2023/08/19 08:37:11;;;;;;;15.70;14.97;;;27.90;99.90;;;;;;4907254;29;20497;-86
2023/08/19 08:39:41;;;;;;;16.50;15.80;;;28.00;99.90;;;;;;4907458;29;20470;-86
2023/08/19 08:42:10;;;;;;;16.10;15.20;;;28.00;99.90;;;;;;4908173;29;20482;-86
2023/08/19 08:44:43;;;;;;;15.80;15.10;;;28.00;99.90;;;;;;4906986;29;20463;-86
2023/08/19 08:47:12;;;;;;;16.70;15.90;;;28.10;99.90;;;;;;4905725;29;20481;-87
2023/08/19 08:49:45;;;;;;;15.80;15.10;;;28.10;99.90;;;;;;4909512;29;20910;-87
2023/08/19 08:52:14;;;;;;;15.40;14.80;;;28.10;99.90;;;;;;4904803;29;20478;-86
2023/08/19 08:54:45;;;;;;;16.40;15.60;;;28.20;99.90;;;;;;4903443;29;20466;-86
2023/08/19 08:57:19;;;;;;;16.90;16.10;;;28.20;99.90;;;;;;4906493;29;20466;-86
2023/08/19 08:59:53;;;;;;;17.30;16.20;;;28.30;99.90;;;;;;4903001;29;20463;-86
2023/08/19 09:02:28;;;;;;;15.90;15.10;;;28.30;99.90;;;;;;4920568;29;20485;-89
2023/08/19 09:05:04;;;;;;;15.63;15.00;;;28.40;99.90;;;;;;4905741;29;20450;-86
2023/08/19 09:07:38;;;;;;;15.07;14.50;;;28.40;99.90;;;;;;4906537;29;20487;-90
2023/08/19 09:10:11;;;;;;;16.53;15.73;;;28.50;99.90;;;;;;4905976;29;20480;-89
2023/08/19 09:12:43;;;;;;;15.50;14.90;;;28.50;99.90;;;;;;4904281;29;20462;-86
2023/08/19 09:15:18;;;;;;;16.97;15.90;;;28.60;99.90;;;;;;4906402;29;20546;-88
2023/08/19 09:17:49;;;;;;;16.70;15.90;;;28.60;99.90;;;;;;4906273;29;20469;-84
2023/08/19 09:20:22;;;;;;;17.30;16.07;;;28.70;99.90;;;;;;4904767;29;21052;-86
2023/08/19 09:23:04;;;;;;;16.77;15.97;;;28.70;99.90;;;;;;4903779;29;20541;-89
2023/08/19 09:25:36;;;;;;;16.87;15.87;;;28.70;99.90;;;;;;4905318;29;20481;-89
2023/08/19 09:28:07;;;;;;;15.90;15.10;;;28.80;99.90;;;;;;4905595;29;20506;-86
2023/08/19 09:30:40;;;;;;;16.07;15.40;;;28.80;99.90;;;;;;4909780;29;20959;-86
2023/08/19 09:33:13;;;;;;;15.20;14.60;;;28.90;99.90;;;;;;4906726;29;20474;-88
2023/08/19 09:35:45;;;;;;;16.00;15.20;;;28.90;99.90;;;;;;4907348;29;20478;-86
2023/08/19 09:38:29;;;;;;;15.80;15.23;;;28.90;99.90;;;;;;4908356;29;20477;-86
2023/08/19 09:41:02;;;;;;;14.67;14.00;;;28.90;99.90;;;;;;4905629;29;20443;-88
2023/08/19 09:43:33;;;;;;;16.07;15.23;;;28.90;99.90;;;;;;4905747;29;21128;-86
2023/08/19 09:46:07;;;;;;;16.00;15.17;;;28.90;99.90;;;;;;4902027;29;20473;-85
2023/08/19 09:48:38;;;;;;;16.17;15.43;;;28.90;99.90;;;;;;4902860;29;20546;-86
2023/08/19 09:51:09;;;;;;;16.60;15.80;;;29.10;99.90;;;;;;4903728;29;20450;-86
2023/08/19 09:53:41;;;;;;;15.87;15.10;;;29.10;99.90;;;;;;4923195;29;20474;-86
2023/08/19 09:56:21;;;;;;;15.27;14.60;;;29.10;99.90;;;;;;4908646;29;20454;-86
2023/08/19 09:58:56;;;;;;;15.60;15.07;;;29.20;99.90;;;;;;4901677;29;20510;-86
2023/08/19 10:01:27;;;;;;;15.17;14.60;;;29.30;99.90;;;;;;4905876;29;20478;-86
2023/08/19 10:04:02;;;;;;;15.63;14.90;;;29.30;99.90;;;;;;4905373;29;20464;-86
2023/08/19 10:06:38;;;;;;;16.50;15.80;;;29.30;99.90;;;;;;4908099;29;20505;-86
2023/08/19 10:09:18;;;;;;;15.43;14.47;;;29.40;99.90;;;;;;4908861;29;20505;-86
2023/08/19 10:11:55;;;;;;;15.17;14.47;;;29.40;99.90;;;;;;4906739;29;20468;-86
2023/08/19 10:14:30;;;;;;;16.30;15.50;;;29.50;99.90;;;;;;4904477;29;20482;-87
2023/08/19 10:17:05;;;;;;;16.30;15.50;;;29.50;99.90;;;;;;4907805;29;20502;-87
2023/08/19 10:19:43;;;;;;;15.73;15.23;;;29.60;99.90;;;;;;4929168;29;20490;-89
2023/08/19 10:22:18;;;;;;;15.70;14.97;;;29.70;99.90;;;;;;4907693;29;20446;-87
2023/08/19 10:24:49;;;;;;;15.90;15.20;;;29.70;99.90;;;;;;4906567;29;20462;-85
2023/08/19 10:27:22;;;;;;;15.63;14.80;;;29.80;99.90;;;;;;4902384;29;20487;-86
2023/08/19 10:29:57;;;;;;;15.23;14.60;;;29.70;99.90;;;;;;4905829;29;20450;-86
2023/08/19 10:32:27;;;;;;;16.70;15.60;;;29.90;99.90;;;;;;4903863;29;20944;-86
2023/08/19 10:35:08;;;;;;;15.53;14.77;;;29.90;99.90;;;;;;4905232;29;20488;-89
2023/08/19 10:37:44;;;;;;;15.47;14.83;;;29.90;99.90;;;;;;4904565;29;21086;-85
2023/08/19 10:40:23;;;;;;;15.17;14.67;;;29.90;99.90;;;;;;4904554;29;20470;-86
2023/08/19 10:43:00;;;;;;;15.87;15.13;;;30.00;99.90;;;;;;4903958;29;20477;-87
2023/08/19 10:45:32;;;;;;;15.70;15.10;;;30.10;99.90;;;;;;4905726;29;20601;-86
2023/08/19 10:48:03;;;;;;;15.47;14.87;;;30.10;99.90;;;;;;4905598;29;20859;-86
2023/08/19 10:50:39;;;;;;;16.03;15.23;;;30.30;99.90;;;;;;4906579;29;20895;-88
2023/08/19 10:53:21;;;;;;;15.20;14.60;;;30.20;99.90;;;;;;4917899;29;20545;-89
2023/08/19 10:55:56;;;;;;;16.10;15.30;;;30.20;99.90;;;;;;4904864;29;20885;-86
2023/08/19 10:58:26;;;;;;;15.03;14.43;;;30.20;99.90;;;;;;4904840;29;20573;-87
2023/08/19 11:00:58;;;;;;;14.90;14.30;;;30.10;99.90;;;;;;4906716;29;20984;-87
2023/08/19 11:03:31;;;;;;;15.20;14.40;;;30.20;99.90;;;;;;4901518;29;20503;-89
2023/08/19 11:06:07;;;;;;;15.87;15.07;;;30.20;99.90;;;;;;4904713;29;20456;-86
2023/08/19 11:08:47;;;;;;;15.53;14.73;;;30.30;99.90;;;;;;4905409;29;20506;-86
2023/08/19 11:11:17;;;;;;;15.10;14.50;;;30.20;99.90;;;;;;4910226;29;20552;-85
2023/08/19 11:13:50;;;;;;;14.73;14.17;;;30.20;99.90;;;;;;4907278;29;21175;-88
2023/08/19 11:16:26;;;;;;;14.80;14.20;;;30.30;99.90;;;;;;4909164;29;20498;-87
2023/08/19 11:18:56;;;;;;;16.10;15.40;;;30.30;99.90;;;;;;4907541;29;20469;-86
2023/08/19 11:21:29;;;;;;;15.13;14.43;;;30.30;99.90;;;;;;4908384;29;20971;-88
2023/08/19 11:23:59;;;;;;;15.23;14.63;;;30.50;99.90;;;;;;4908465;29;20453;-88
2023/08/19 11:26:42;;;;;;;15.23;14.53;;;30.50;99.90;;;;;;4905748;29;20920;-87
2023/08/19 11:29:15;;;;;;;14.83;14.07;;;30.50;99.90;;;;;;4922803;29;20461;-87
2023/08/19 11:31:50;;;;;;;14.83;14.33;;;30.50;99.90;;;;;;4901415;29;20471;-87
2023/08/19 11:34:21;;;;;;;16.03;15.40;;;30.40;99.90;;;;;;4909260;29;20512;-88
2023/08/19 11:36:52;;;;;;;15.13;14.40;;;30.50;99.90;;;;;;4906742;29;20466;-87
2023/08/19 11:39:21;;;;;;;14.83;13.93;;;30.50;99.90;;;;;;4905893;29;20470;-86
2023/08/19 11:41:50;;;;;;;15.20;14.40;;;30.60;99.90;;;;;;4908328;29;20454;-86
2023/08/19 11:44:22;;;;;;;14.10;13.50;;;30.60;99.90;;;;;;4907893;29;20855;-86
2023/08/19 11:46:56;;;;;;;14.03;13.53;;;30.70;99.90;;;;;;4906314;29;21031;-88
2023/08/19 11:49:32;;;;;;;15.80;15.10;;;30.80;99.90;;;;;;4905598;29;20461;-87
2023/08/19 11:52:04;;;;;;;14.00;13.50;;;30.80;99.90;;;;;;4905400;29;20458;-88
2023/08/19 11:54:43;;;;;;;14.07;13.57;;;30.80;99.90;;;;;;4907038;29;20995;-86
2023/08/19 11:57:17;;;;;;;13.87;13.17;;;30.80;99.90;;;;;;4907906;29;20469;-86
2023/08/19 11:59:48;;;;;;;13.47;12.90;;;30.90;99.90;;;;;;4920948;29;21058;-87
2023/08/19 12:02:22;;;;;;;13.73;13.13;;;30.80;99.90;;;;;;4906396;29;20484;-86
2023/08/19 12:04:58;;;;;;;14.43;13.73;;;30.90;99.90;;;;;;4906268;29;20458;-86
2023/08/19 12:07:30;;;;;;;13.70;13.30;;;30.90;99.90;;;;;;4906020;29;20490;-89
2023/08/19 12:10:03;;;;;;;14.00;13.30;;;31.00;99.90;;;;;;4921831;29;20458;-86
2023/08/19 12:12:37;;;;;;;14.10;13.40;;;31.10;99.90;;;;;;4906888;29;20493;-87
2023/08/19 12:15:09;;;;;;;13.10;12.67;;;31.10;99.90;;;;;;4920402;29;20517;-86
2023/08/19 12:17:40;;;;;;;13.20;12.70;;;31.00;99.90;;;;;;4911836;29;20469;-86
2023/08/19 12:20:09;;;;;;;12.83;12.43;;;31.00;99.90;;;;;;4912821;29;20474;-88
2023/08/19 12:22:39;;;;;;;12.40;11.80;;;31.10;99.90;;;;;;4907832;28;20457;-87
2023/08/19 12:25:11;;;;;;;13.10;12.50;;;31.20;99.90;;;;;;4906548;29;20482;-86
2023/08/19 12:27:43;;;;;;;13.87;12.77;;;31.20;99.90;;;;;;4908296;29;20561;-88
2023/08/19 12:30:16;;;;;;;13.60;12.87;;;31.30;99.90;;;;;;4906953;29;20470;-86
2023/08/19 12:32:47;;;;;;;12.93;12.40;;;31.30;99.90;;;;;;4922724;29;20470;-86
2023/08/19 12:35:17;;;;;;;12.77;12.27;;;31.30;99.90;;;;;;4907776;29;21023;-87
2023/08/19 12:37:53;;;;;;;13.03;12.40;;;31.40;99.90;;;;;;4907524;29;20487;-87
2023/08/19 12:40:24;;;;;;;12.37;11.87;;;31.40;99.90;;;;;;4910849;29;20489;-90
2023/08/19 12:42:55;;;;;;;12.80;12.33;;;31.40;99.90;;;;;;4909437;29;20455;-86
2023/08/19 12:45:30;;;;;;;13.40;12.73;;;31.30;99.90;;;;;;4907666;29;20476;-88
2023/08/19 12:48:03;;;;;;;13.57;12.90;;;31.30;99.90;;;;;;4909016;29;20495;-86
2023/08/19 12:50:32;;;;;;;12.33;12.03;;;31.20;99.90;;;;;;4902896;29;20493;-86
2023/08/19 12:53:07;;;;;;;13.10;12.47;;;31.20;99.90;;;;;;4905297;29;20454;-86
2023/08/19 12:55:46;;;;;;;12.77;12.17;;;31.30;99.90;;;;;;4907604;29;20565;-85
2023/08/19 12:58:17;;;;;;;12.30;11.80;;;31.30;99.90;;;;;;4910110;29;20461;-86
2023/08/19 13:00:45;;;;;;;14.33;13.43;;;31.30;99.90;;;;;;4903550;29;20570;-86